sensor_id;sensor_type;location;lat;lon;timestamp;temperature;humidity
14031;DHT22;7090;49.436;8.490;2023-06-26T00:00:13;19.60;99.90
14031;DHT22;7090;49.436;8.490;2023-06-26T00:02:39;19.60;99.90
14031;DHT22;7090;49.436;8.490;2023-06-26T00:05:05;19.50;99.90
14031;DHT22;7090;49.436;8.490;2023-06-26T00:07:31;19.50;99.90
14031;DHT22;7090;49.436;8.490;2023-06-26T00:10:00;19.60;99.90
14031;DHT22;7090;49.436;8.490;2023-06-26T00:12:26;19.60;99.90
14031;DHT22;7090;49.436;8.490;2023-06-26T00:14:52;19.50;99.90
14031;DHT22;7090;49.436;8.490;2023-06-26T00:17:18;19.30;99.90
14031;DHT22;7090;49.436;8.490;2023-06-26T00:19:43;19.10;99.90
14031;DHT22;7090;49.436;8.490;2023-06-26T00:22:09;19.10;99.90
14031;DHT22;7090;49.436;8.490;2023-06-26T00:24:34;19.10;99.90
14031;DHT22;7090;49.436;8.490;2023-06-26T00:27:00;18.90;99.90
14031;DHT22;7090;49.436;8.490;2023-06-26T00:29:26;18.90;99.90
14031;DHT22;7090;49.436;8.490;2023-06-26T00:31:51;18.80;99.90
14031;DHT22;7090;49.436;8.490;2023-06-26T00:34:17;18.80;99.90
14031;DHT22;7090;49.436;8.490;2023-06-26T00:36:43;18.80;99.90
14031;DHT22;7090;49.436;8.490;2023-06-26T00:39:09;18.70;99.90
14031;DHT22;7090;49.436;8.490;2023-06-26T00:41:39;18.70;99.90
14031;DHT22;7090;49.436;8.490;2023-06-26T00:44:05;18.60;99.90
14031;DHT22;7090;49.436;8.490;2023-06-26T00:46:31;18.60;99.90
14031;DHT22;7090;49.436;8.490;2023-06-26T00:48:59;18.60;99.90
14031;DHT22;7090;49.436;8.490;2023-06-26T00:51:27;18.40;99.90
14031;DHT22;7090;49.436;8.490;2023-06-26T00:53:53;18.40;99.90
14031;DHT22;7090;49.436;8.490;2023-06-26T00:56:20;18.40;99.90
14031;DHT22;7090;49.436;8.490;2023-06-26T00:58:45;18.40;99.90
14031;DHT22;7090;49.436;8.490;2023-06-26T01:01:12;18.30;99.90
14031;DHT22;7090;49.436;8.490;2023-06-26T01:03:48;18.50;99.90
14031;DHT22;7090;49.436;8.490;2023-06-26T01:06:17;18.80;99.90
14031;DHT22;7090;49.436;8.490;2023-06-26T01:08:44;18.90;99.90
14031;DHT22;7090;49.436;8.490;2023-06-26T01:11:10;18.80;99.90
14031;DHT22;7090;49.436;8.490;2023-06-26T01:13:36;18.80;99.90
14031;DHT22;7090;49.436;8.490;2023-06-26T01:16:02;18.80;99.90
14031;DHT22;7090;49.436;8.490;2023-06-26T01:18:30;18.80;99.90
14031;DHT22;7090;49.436;8.490;2023-06-26T01:20:56;18.80;99.90
14031;DHT22;7090;49.436;8.490;2023-06-26T01:23:35;19.00;99.90
14031;DHT22;7090;49.436;8.490;2023-06-26T01:28:39;19.10;99.90
14031;DHT22;7090;49.436;8.490;2023-06-26T01:31:06;18.90;99.90
14031;DHT22;7090;49.436;8.490;2023-06-26T01:33:32;18.70;99.90
14031;DHT22;7090;49.436;8.490;2023-06-26T01:35:58;18.60;99.90
14031;DHT22;7090;49.436;8.490;2023-06-26T01:38:24;18.50;99.90
14031;DHT22;7090;49.436;8.490;2023-06-26T01:40:51;18.60;99.90
14031;DHT22;7090;49.436;8.490;2023-06-26T01:47:10;18.60;99.90
14031;DHT22;7090;49.436;8.490;2023-06-26T01:51:42;18.30;99.90
14031;DHT22;7090;49.436;8.490;2023-06-26T01:54:14;18.20;99.90
14031;DHT22;7090;49.436;8.490;2023-06-26T01:56:42;18.10;99.90
14031;DHT22;7090;49.436;8.490;2023-06-26T01:59:11;18.10;99.90
14031;DHT22;7090;49.436;8.490;2023-06-26T02:01:39;17.90;99.90
14031;DHT22;7090;49.436;8.490;2023-06-26T02:04:05;17.80;99.90
14031;DHT22;7090;49.436;8.490;2023-06-26T02:06:30;17.70;99.90
14031;DHT22;7090;49.436;8.490;2023-06-26T02:08:56;17.80;99.90
14031;DHT22;7090;49.436;8.490;2023-06-26T02:11:22;17.80;99.90
14031;DHT22;7090;49.436;8.490;2023-06-26T02:13:48;17.80;99.90
14031;DHT22;7090;49.436;8.490;2023-06-26T02:16:13;17.80;99.90
14031;DHT22;7090;49.436;8.490;2023-06-26T02:18:39;17.90;99.90
14031;DHT22;7090;49.436;8.490;2023-06-26T02:21:05;18.00;99.90
14031;DHT22;7090;49.436;8.490;2023-06-26T02:23:31;18.00;99.90
14031;DHT22;7090;49.436;8.490;2023-06-26T02:25:57;17.90;99.90
14031;DHT22;7090;49.436;8.490;2023-06-26T02:28:22;17.80;99.90
14031;DHT22;7090;49.436;8.490;2023-06-26T02:30:48;17.70;99.90
14031;DHT22;7090;49.436;8.490;2023-06-26T02:33:13;17.70;99.90
14031;DHT22;7090;49.436;8.490;2023-06-26T02:35:39;17.90;99.90
14031;DHT22;7090;49.436;8.490;2023-06-26T02:38:04;18.00;99.90
14031;DHT22;7090;49.436;8.490;2023-06-26T02:40:30;17.80;99.90
14031;DHT22;7090;49.436;8.490;2023-06-26T02:42:55;17.70;99.90
14031;DHT22;7090;49.436;8.490;2023-06-26T02:45:21;17.70;99.90
14031;DHT22;7090;49.436;8.490;2023-06-26T02:47:46;17.90;99.90
14031;DHT22;7090;49.436;8.490;2023-06-26T02:50:12;18.20;99.90
14031;DHT22;7090;49.436;8.490;2023-06-26T02:52:37;18.40;99.90
14031;DHT22;7090;49.436;8.490;2023-06-26T02:55:04;18.60;99.90
14031;DHT22;7090;49.436;8.490;2023-06-26T02:57:30;18.90;99.90
14031;DHT22;7090;49.436;8.490;2023-06-26T02:59:56;19.00;99.90
14031;DHT22;7090;49.436;8.490;2023-06-26T03:02:21;19.10;99.90
14031;DHT22;7090;49.436;8.490;2023-06-26T03:04:47;19.00;99.90
14031;DHT22;7090;49.436;8.490;2023-06-26T03:07:13;18.80;99.90
14031;DHT22;7090;49.436;8.490;2023-06-26T03:09:38;18.80;99.90
14031;DHT22;7090;49.436;8.490;2023-06-26T03:12:04;18.80;99.90
14031;DHT22;7090;49.436;8.490;2023-06-26T03:14:30;18.70;99.90
14031;DHT22;7090;49.436;8.490;2023-06-26T03:16:57;18.70;99.90
14031;DHT22;7090;49.436;8.490;2023-06-26T03:19:24;18.80;99.90
14031;DHT22;7090;49.436;8.490;2023-06-26T03:21:50;18.90;99.90
14031;DHT22;7090;49.436;8.490;2023-06-26T03:24:15;19.00;99.90
14031;DHT22;7090;49.436;8.490;2023-06-26T03:26:41;19.00;99.90
14031;DHT22;7090;49.436;8.490;2023-06-26T03:29:06;18.90;99.90
14031;DHT22;7090;49.436;8.490;2023-06-26T03:31:32;18.90;99.90
14031;DHT22;7090;49.436;8.490;2023-06-26T03:33:58;18.90;99.90
14031;DHT22;7090;49.436;8.490;2023-06-26T03:36:23;18.80;99.90
14031;DHT22;7090;49.436;8.490;2023-06-26T03:38:49;18.80;99.90
14031;DHT22;7090;49.436;8.490;2023-06-26T03:41:14;18.90;99.90
14031;DHT22;7090;49.436;8.490;2023-06-26T03:43:40;18.90;13.30
14031;DHT22;7090;49.436;8.490;2023-06-26T03:46:05;18.90;4.20
14031;DHT22;7090;49.436;8.490;2023-06-26T03:48:31;19.00;1.00
14031;DHT22;7090;49.436;8.490;2023-06-26T03:50:57;18.90;1.00
14031;DHT22;7090;49.436;8.490;2023-06-26T03:53:22;18.90;1.00
14031;DHT22;7090;49.436;8.490;2023-06-26T03:55:49;18.90;43.40
14031;DHT22;7090;49.436;8.490;2023-06-26T03:58:14;19.00;1.00
14031;DHT22;7090;49.436;8.490;2023-06-26T04:00:40;19.20;1.00
14031;DHT22;7090;49.436;8.490;2023-06-26T04:03:06;19.40;1.00
14031;DHT22;7090;49.436;8.490;2023-06-26T04:05:31;19.60;1.00
14031;DHT22;7090;49.436;8.490;2023-06-26T04:07:57;19.70;1.00
14031;DHT22;7090;49.436;8.490;2023-06-26T04:10:22;19.90;99.90
14031;DHT22;7090;49.436;8.490;2023-06-26T04:12:48;20.20;99.90
14031;DHT22;7090;49.436;8.490;2023-06-26T04:15:14;20.40;99.90
14031;DHT22;7090;49.436;8.490;2023-06-26T04:17:39;20.50;99.90
14031;DHT22;7090;49.436;8.490;2023-06-26T04:20:05;20.70;99.90
14031;DHT22;7090;49.436;8.490;2023-06-26T04:22:34;21.10;99.90
14031;DHT22;7090;49.436;8.490;2023-06-26T04:25:03;21.20;47.60
14031;DHT22;7090;49.436;8.490;2023-06-26T04:27:29;21.30;37.40
14031;DHT22;7090;49.436;8.490;2023-06-26T04:29:55;21.50;1.00
14031;DHT22;7090;49.436;8.490;2023-06-26T04:32:21;21.50;1.00
14031;DHT22;7090;49.436;8.490;2023-06-26T04:34:46;21.70;1.00
14031;DHT22;7090;49.436;8.490;2023-06-26T04:37:13;22.10;1.00
14031;DHT22;7090;49.436;8.490;2023-06-26T04:39:41;22.30;1.00
14031;DHT22;7090;49.436;8.490;2023-06-26T04:42:07;22.50;1.00
14031;DHT22;7090;49.436;8.490;2023-06-26T04:44:32;22.60;1.00
14031;DHT22;7090;49.436;8.490;2023-06-26T04:46:58;22.40;1.00
14031;DHT22;7090;49.436;8.490;2023-06-26T04:49:24;22.60;1.00
14031;DHT22;7090;49.436;8.490;2023-06-26T04:51:50;22.50;1.00
14031;DHT22;7090;49.436;8.490;2023-06-26T04:54:16;22.30;1.00
14031;DHT22;7090;49.436;8.490;2023-06-26T04:56:42;23.00;1.00
14031;DHT22;7090;49.436;8.490;2023-06-26T04:59:09;23.00;1.00
14031;DHT22;7090;49.436;8.490;2023-06-26T05:01:38;22.90;1.00
14031;DHT22;7090;49.436;8.490;2023-06-26T05:04:05;22.80;1.00
14031;DHT22;7090;49.436;8.490;2023-06-26T05:06:30;22.20;99.90
14031;DHT22;7090;49.436;8.490;2023-06-26T05:08:56;22.10;99.90
14031;DHT22;7090;49.436;8.490;2023-06-26T05:11:22;22.20;99.90
14031;DHT22;7090;49.436;8.490;2023-06-26T05:13:48;22.00;99.90
14031;DHT22;7090;49.436;8.490;2023-06-26T05:16:14;22.20;99.90
14031;DHT22;7090;49.436;8.490;2023-06-26T05:18:40;22.30;99.90
14031;DHT22;7090;49.436;8.490;2023-06-26T05:21:05;22.30;99.90
14031;DHT22;7090;49.436;8.490;2023-06-26T05:23:32;22.10;99.90
14031;DHT22;7090;49.436;8.490;2023-06-26T05:25:58;22.10;99.90
14031;DHT22;7090;49.436;8.490;2023-06-26T05:28:25;22.30;99.90
14031;DHT22;7090;49.436;8.490;2023-06-26T05:30:53;22.50;99.90
14031;DHT22;7090;49.436;8.490;2023-06-26T05:33:19;22.50;99.90
14031;DHT22;7090;49.436;8.490;2023-06-26T05:35:48;22.60;99.90
14031;DHT22;7090;49.436;8.490;2023-06-26T05:38:14;22.80;99.90
14031;DHT22;7090;49.436;8.490;2023-06-26T05:40:40;22.90;99.90
14031;DHT22;7090;49.436;8.490;2023-06-26T05:43:06;22.90;99.90
14031;DHT22;7090;49.436;8.490;2023-06-26T05:45:32;22.80;99.90
14031;DHT22;7090;49.436;8.490;2023-06-26T05:47:58;23.00;99.90
14031;DHT22;7090;49.436;8.490;2023-06-26T05:50:24;23.70;1.00
14031;DHT22;7090;49.436;8.490;2023-06-26T05:52:50;23.90;99.90
14031;DHT22;7090;49.436;8.490;2023-06-26T05:55:16;23.70;99.90
14031;DHT22;7090;49.436;8.490;2023-06-26T05:57:42;24.10;1.00
14031;DHT22;7090;49.436;8.490;2023-06-26T06:00:08;24.00;1.00
14031;DHT22;7090;49.436;8.490;2023-06-26T06:02:38;24.20;99.90
14031;DHT22;7090;49.436;8.490;2023-06-26T06:05:04;24.40;99.90
14031;DHT22;7090;49.436;8.490;2023-06-26T06:07:32;24.50;1.00
14031;DHT22;7090;49.436;8.490;2023-06-26T06:09:58;24.60;99.90
14031;DHT22;7090;49.436;8.490;2023-06-26T06:12:23;24.60;99.90
14031;DHT22;7090;49.436;8.490;2023-06-26T06:14:49;24.60;99.90
14031;DHT22;7090;49.436;8.490;2023-06-26T06:17:14;25.20;1.00
14031;DHT22;7090;49.436;8.490;2023-06-26T06:19:40;24.60;1.00
14031;DHT22;7090;49.436;8.490;2023-06-26T06:22:06;25.00;1.00
14031;DHT22;7090;49.436;8.490;2023-06-26T06:24:31;25.00;1.00
14031;DHT22;7090;49.436;8.490;2023-06-26T06:26:57;25.20;1.00
14031;DHT22;7090;49.436;8.490;2023-06-26T06:29:22;25.50;1.00
14031;DHT22;7090;49.436;8.490;2023-06-26T06:31:48;25.40;1.00
14031;DHT22;7090;49.436;8.490;2023-06-26T06:34:13;25.40;1.00
14031;DHT22;7090;49.436;8.490;2023-06-26T06:36:39;25.90;1.00
14031;DHT22;7090;49.436;8.490;2023-06-26T06:39:05;25.80;1.00
14031;DHT22;7090;49.436;8.490;2023-06-26T06:41:30;25.50;1.00
14031;DHT22;7090;49.436;8.490;2023-06-26T06:43:56;25.10;1.00
14031;DHT22;7090;49.436;8.490;2023-06-26T06:46:22;25.50;1.00
14031;DHT22;7090;49.436;8.490;2023-06-26T06:48:47;25.50;1.00
14031;DHT22;7090;49.436;8.490;2023-06-26T06:51:13;25.50;1.00
14031;DHT22;7090;49.436;8.490;2023-06-26T06:53:38;25.40;1.00
14031;DHT22;7090;49.436;8.490;2023-06-26T06:56:04;25.30;1.00
14031;DHT22;7090;49.436;8.490;2023-06-26T06:58:29;25.50;1.00
14031;DHT22;7090;49.436;8.490;2023-06-26T07:00:59;25.70;1.00
14031;DHT22;7090;49.436;8.490;2023-06-26T07:03:25;25.80;1.00
14031;DHT22;7090;49.436;8.490;2023-06-26T07:05:50;26.30;1.00
14031;DHT22;7090;49.436;8.490;2023-06-26T07:08:16;26.20;1.00
14031;DHT22;7090;49.436;8.490;2023-06-26T07:10:41;26.20;1.00
14031;DHT22;7090;49.436;8.490;2023-06-26T07:13:07;26.40;1.00
14031;DHT22;7090;49.436;8.490;2023-06-26T07:15:33;26.60;1.00
14031;DHT22;7090;49.436;8.490;2023-06-26T07:17:58;27.20;1.00
14031;DHT22;7090;49.436;8.490;2023-06-26T07:20:24;27.50;1.00
14031;DHT22;7090;49.436;8.490;2023-06-26T07:22:49;27.40;1.00
14031;DHT22;7090;49.436;8.490;2023-06-26T07:25:15;27.60;1.00
14031;DHT22;7090;49.436;8.490;2023-06-26T07:27:41;26.90;1.00
14031;DHT22;7090;49.436;8.490;2023-06-26T07:30:07;27.00;1.00
14031;DHT22;7090;49.436;8.490;2023-06-26T07:32:37;27.40;1.00
14031;DHT22;7090;49.436;8.490;2023-06-26T07:35:03;27.40;1.00
14031;DHT22;7090;49.436;8.490;2023-06-26T07:37:28;27.60;1.00
14031;DHT22;7090;49.436;8.490;2023-06-26T07:39:54;27.20;1.00
14031;DHT22;7090;49.436;8.490;2023-06-26T07:42:19;27.50;1.00
14031;DHT22;7090;49.436;8.490;2023-06-26T07:44:45;27.40;1.00
14031;DHT22;7090;49.436;8.490;2023-06-26T07:47:11;27.50;1.00
14031;DHT22;7090;49.436;8.490;2023-06-26T07:49:37;27.40;1.00
14031;DHT22;7090;49.436;8.490;2023-06-26T07:52:04;28.20;1.00
14031;DHT22;7090;49.436;8.490;2023-06-26T07:54:30;28.30;1.00
14031;DHT22;7090;49.436;8.490;2023-06-26T07:56:57;27.80;1.00
14031;DHT22;7090;49.436;8.490;2023-06-26T07:59:24;27.80;1.00
14031;DHT22;7090;49.436;8.490;2023-06-26T08:01:51;28.20;1.00
14031;DHT22;7090;49.436;8.490;2023-06-26T08:04:27;28.30;1.00
14031;DHT22;7090;49.436;8.490;2023-06-26T08:06:54;28.10;1.00
14031;DHT22;7090;49.436;8.490;2023-06-26T08:09:22;28.30;1.00
14031;DHT22;7090;49.436;8.490;2023-06-26T08:11:48;28.30;1.00
14031;DHT22;7090;49.436;8.490;2023-06-26T08:14:14;28.70;1.00
14031;DHT22;7090;49.436;8.490;2023-06-26T08:16:40;28.60;1.00
14031;DHT22;7090;49.436;8.490;2023-06-26T08:19:07;29.30;1.00
14031;DHT22;7090;49.436;8.490;2023-06-26T08:21:33;29.00;1.00
14031;DHT22;7090;49.436;8.490;2023-06-26T08:23:58;29.10;1.00
14031;DHT22;7090;49.436;8.490;2023-06-26T08:26:24;29.80;1.00
14031;DHT22;7090;49.436;8.490;2023-06-26T08:28:49;30.80;1.00
14031;DHT22;7090;49.436;8.490;2023-06-26T08:31:16;30.70;1.00
14031;DHT22;7090;49.436;8.490;2023-06-26T08:33:42;30.70;1.00
14031;DHT22;7090;49.436;8.490;2023-06-26T08:36:07;31.10;1.00
14031;DHT22;7090;49.436;8.490;2023-06-26T08:38:33;31.90;1.00
14031;DHT22;7090;49.436;8.490;2023-06-26T08:40:59;32.80;1.00
14031;DHT22;7090;49.436;8.490;2023-06-26T08:43:25;33.40;1.00
14031;DHT22;7090;49.436;8.490;2023-06-26T08:45:52;34.40;1.00
14031;DHT22;7090;49.436;8.490;2023-06-26T08:48:18;34.80;1.00
14031;DHT22;7090;49.436;8.490;2023-06-26T08:50:48;34.50;1.00
14031;DHT22;7090;49.436;8.490;2023-06-26T08:53:27;34.20;1.00
14031;DHT22;7090;49.436;8.490;2023-06-26T08:55:57;33.60;1.00
14031;DHT22;7090;49.436;8.490;2023-06-26T08:58:23;33.90;1.00
14031;DHT22;7090;49.436;8.490;2023-06-26T09:00:49;34.60;1.00
14031;DHT22;7090;49.436;8.490;2023-06-26T09:03:15;34.40;1.00
14031;DHT22;7090;49.436;8.490;2023-06-26T09:05:41;34.10;1.00
14031;DHT22;7090;49.436;8.490;2023-06-26T09:08:07;33.70;1.00
14031;DHT22;7090;49.436;8.490;2023-06-26T09:10:33;33.00;1.00
14031;DHT22;7090;49.436;8.490;2023-06-26T09:12:59;33.40;1.00
14031;DHT22;7090;49.436;8.490;2023-06-26T09:15:27;33.70;1.00
14031;DHT22;7090;49.436;8.490;2023-06-26T09:17:56;33.80;1.00
14031;DHT22;7090;49.436;8.490;2023-06-26T09:20:23;34.00;1.00
14031;DHT22;7090;49.436;8.490;2023-06-26T09:22:48;34.50;1.00
14031;DHT22;7090;49.436;8.490;2023-06-26T09:25:14;34.60;1.00
14031;DHT22;7090;49.436;8.490;2023-06-26T09:27:39;34.20;1.00
14031;DHT22;7090;49.436;8.490;2023-06-26T09:30:06;34.10;1.00
14031;DHT22;7090;49.436;8.490;2023-06-26T09:32:35;34.70;1.00
14031;DHT22;7090;49.436;8.490;2023-06-26T09:35:02;34.60;1.00
14031;DHT22;7090;49.436;8.490;2023-06-26T09:37:28;34.80;1.00
14031;DHT22;7090;49.436;8.490;2023-06-26T09:39:54;35.40;1.00
14031;DHT22;7090;49.436;8.490;2023-06-26T09:42:19;34.80;1.00
14031;DHT22;7090;49.436;8.490;2023-06-26T09:44:46;34.40;1.00
14031;DHT22;7090;49.436;8.490;2023-06-26T09:47:12;34.40;1.00
14031;DHT22;7090;49.436;8.490;2023-06-26T09:49:41;34.00;1.00
14031;DHT22;7090;49.436;8.490;2023-06-26T09:52:08;33.20;1.00
14031;DHT22;7090;49.436;8.490;2023-06-26T09:54:33;33.50;1.00
14031;DHT22;7090;49.436;8.490;2023-06-26T09:57:18;33.50;1.00
14031;DHT22;7090;49.436;8.490;2023-06-26T09:59:44;33.60;1.00
14031;DHT22;7090;49.436;8.490;2023-06-26T10:02:13;34.20;1.00
14031;DHT22;7090;49.436;8.490;2023-06-26T10:04:38;34.70;1.00
14031;DHT22;7090;49.436;8.490;2023-06-26T10:07:13;35.50;1.00
14031;DHT22;7090;49.436;8.490;2023-06-26T10:09:42;35.70;1.00
14031;DHT22;7090;49.436;8.490;2023-06-26T10:12:19;36.40;1.00
14031;DHT22;7090;49.436;8.490;2023-06-26T10:14:45;36.20;1.00
14031;DHT22;7090;49.436;8.490;2023-06-26T10:17:15;35.60;1.00
14031;DHT22;7090;49.436;8.490;2023-06-26T10:19:44;35.70;99.90
14031;DHT22;7090;49.436;8.490;2023-06-26T10:22:11;35.80;99.90
14031;DHT22;7090;49.436;8.490;2023-06-26T10:24:39;35.70;99.90
14031;DHT22;7090;49.436;8.490;2023-06-26T10:27:16;34.70;99.90
14031;DHT22;7090;49.436;8.490;2023-06-26T10:29:44;34.10;1.00
14031;DHT22;7090;49.436;8.490;2023-06-26T10:32:13;33.90;99.90
14031;DHT22;7090;49.436;8.490;2023-06-26T10:34:39;33.70;99.90
14031;DHT22;7090;49.436;8.490;2023-06-26T10:37:05;33.80;99.90
14031;DHT22;7090;49.436;8.490;2023-06-26T10:40:00;34.00;99.90
14031;DHT22;7090;49.436;8.490;2023-06-26T10:42:35;34.60;99.90
14031;DHT22;7090;49.436;8.490;2023-06-26T10:45:30;35.20;99.90
14031;DHT22;7090;49.436;8.490;2023-06-26T10:47:58;35.40;99.90
14031;DHT22;7090;49.436;8.490;2023-06-26T10:50:27;34.50;1.00
14031;DHT22;7090;49.436;8.490;2023-06-26T10:55:43;34.20;99.90
14031;DHT22;7090;49.436;8.490;2023-06-26T10:59:00;34.60;99.90
14031;DHT22;7090;49.436;8.490;2023-06-26T11:01:25;34.50;99.90
14031;DHT22;7090;49.436;8.490;2023-06-26T11:04:06;34.40;99.90
14031;DHT22;7090;49.436;8.490;2023-06-26T11:06:33;34.70;99.90
14031;DHT22;7090;49.436;8.490;2023-06-26T11:09:11;34.90;99.90
14031;DHT22;7090;49.436;8.490;2023-06-26T11:14:19;35.70;99.90
14031;DHT22;7090;49.436;8.490;2023-06-26T11:16:45;35.80;99.90
14031;DHT22;7090;49.436;8.490;2023-06-26T11:19:11;36.10;99.90
14031;DHT22;7090;49.436;8.490;2023-06-26T11:21:40;36.00;99.90
14031;DHT22;7090;49.436;8.490;2023-06-26T11:24:09;35.70;99.90
14031;DHT22;7090;49.436;8.490;2023-06-26T11:26:39;35.50;73.00
14031;DHT22;7090;49.436;8.490;2023-06-26T11:29:05;34.70;99.90
14031;DHT22;7090;49.436;8.490;2023-06-26T11:31:32;34.70;99.90
14031;DHT22;7090;49.436;8.490;2023-06-26T11:34:00;33.70;99.90
14031;DHT22;7090;49.436;8.490;2023-06-26T11:36:27;33.80;99.90
14031;DHT22;7090;49.436;8.490;2023-06-26T11:38:59;34.00;74.90
14031;DHT22;7090;49.436;8.490;2023-06-26T11:41:30;34.00;99.90
14031;DHT22;7090;49.436;8.490;2023-06-26T11:43:56;32.30;5.80
14031;DHT22;7090;49.436;8.490;2023-06-26T11:46:25;31.70;99.90
14031;DHT22;7090;49.436;8.490;2023-06-26T11:48:50;31.50;99.90
14031;DHT22;7090;49.436;8.490;2023-06-26T11:51:17;32.80;99.90
14031;DHT22;7090;49.436;8.490;2023-06-26T11:53:43;33.70;99.90
14031;DHT22;7090;49.436;8.490;2023-06-26T11:56:15;33.30;99.90
14031;DHT22;7090;49.436;8.490;2023-06-26T11:59:03;33.20;99.90
14031;DHT22;7090;49.436;8.490;2023-06-26T12:01:39;33.80;99.90
14031;DHT22;7090;49.436;8.490;2023-06-26T12:04:07;34.10;99.90
14031;DHT22;7090;49.436;8.490;2023-06-26T12:06:38;34.20;10.40
14031;DHT22;7090;49.436;8.490;2023-06-26T12:09:09;34.40;72.70
14031;DHT22;7090;49.436;8.490;2023-06-26T12:11:38;34.20;10.30
14031;DHT22;7090;49.436;8.490;2023-06-26T12:14:05;33.90;91.40
14031;DHT22;7090;49.436;8.490;2023-06-26T12:16:33;34.10;99.90
14031;DHT22;7090;49.436;8.490;2023-06-26T12:19:04;34.10;30.00
14031;DHT22;7090;49.436;8.490;2023-06-26T12:24:08;34.20;83.00
14031;DHT22;7090;49.436;8.490;2023-06-26T12:26:35;34.20;77.60
14031;DHT22;7090;49.436;8.490;2023-06-26T12:29:14;34.20;96.00
14031;DHT22;7090;49.436;8.490;2023-06-26T12:31:44;34.10;99.90
14031;DHT22;7090;49.436;8.490;2023-06-26T12:34:12;33.60;53.20
14031;DHT22;7090;49.436;8.490;2023-06-26T12:36:41;33.60;1.00
14031;DHT22;7090;49.436;8.490;2023-06-26T12:39:10;34.00;1.00
14031;DHT22;7090;49.436;8.490;2023-06-26T12:41:53;33.70;1.00
14031;DHT22;7090;49.436;8.490;2023-06-26T12:44:22;33.40;1.00
14031;DHT22;7090;49.436;8.490;2023-06-26T12:46:49;33.50;1.00
14031;DHT22;7090;49.436;8.490;2023-06-26T12:49:15;33.70;1.00
14031;DHT22;7090;49.436;8.490;2023-06-26T12:51:41;34.50;1.00
14031;DHT22;7090;49.436;8.490;2023-06-26T12:54:08;34.80;1.00
14031;DHT22;7090;49.436;8.490;2023-06-26T12:56:34;33.80;1.00
14031;DHT22;7090;49.436;8.490;2023-06-26T12:59:00;33.70;1.00
14031;DHT22;7090;49.436;8.490;2023-06-26T13:01:26;33.90;1.00
14031;DHT22;7090;49.436;8.490;2023-06-26T13:03:54;34.20;1.00
14031;DHT22;7090;49.436;8.490;2023-06-26T13:06:20;34.30;1.00
14031;DHT22;7090;49.436;8.490;2023-06-26T13:08:45;34.00;1.00
14031;DHT22;7090;49.436;8.490;2023-06-26T13:11:11;33.30;1.00
14031;DHT22;7090;49.436;8.490;2023-06-26T13:13:36;32.70;1.00
14031;DHT22;7090;49.436;8.490;2023-06-26T13:16:03;32.70;99.90
14031;DHT22;7090;49.436;8.490;2023-06-26T13:18:30;33.80;99.90
14031;DHT22;7090;49.436;8.490;2023-06-26T13:20:55;33.90;99.90
14031;DHT22;7090;49.436;8.490;2023-06-26T13:23:21;33.70;99.90
14031;DHT22;7090;49.436;8.490;2023-06-26T13:25:47;33.60;99.90
14031;DHT22;7090;49.436;8.490;2023-06-26T13:28:12;33.30;99.90
14031;DHT22;7090;49.436;8.490;2023-06-26T13:30:38;33.30;99.90
14031;DHT22;7090;49.436;8.490;2023-06-26T13:33:03;33.70;99.90
14031;DHT22;7090;49.436;8.490;2023-06-26T13:35:29;33.50;99.90
14031;DHT22;7090;49.436;8.490;2023-06-26T13:37:55;33.70;99.90
14031;DHT22;7090;49.436;8.490;2023-06-26T13:40:20;33.30;99.90
14031;DHT22;7090;49.436;8.490;2023-06-26T13:42:46;33.40;99.90
14031;DHT22;7090;49.436;8.490;2023-06-26T13:45:11;33.20;99.90
14031;DHT22;7090;49.436;8.490;2023-06-26T13:47:37;32.70;99.90
14031;DHT22;7090;49.436;8.490;2023-06-26T13:50:09;32.80;99.90
14031;DHT22;7090;49.436;8.490;2023-06-26T13:52:36;32.60;99.90
14031;DHT22;7090;49.436;8.490;2023-06-26T13:55:01;32.80;99.90
14031;DHT22;7090;49.436;8.490;2023-06-26T13:57:30;32.80;99.90
14031;DHT22;7090;49.436;8.490;2023-06-26T13:59:55;32.90;99.90
14031;DHT22;7090;49.436;8.490;2023-06-26T14:02:22;33.10;99.90
14031;DHT22;7090;49.436;8.490;2023-06-26T14:04:47;33.10;99.90
14031;DHT22;7090;49.436;8.490;2023-06-26T14:07:13;33.00;99.90
14031;DHT22;7090;49.436;8.490;2023-06-26T14:09:39;33.20;99.90
14031;DHT22;7090;49.436;8.490;2023-06-26T14:12:06;33.10;99.90
14031;DHT22;7090;49.436;8.490;2023-06-26T14:14:32;33.20;99.90
14031;DHT22;7090;49.436;8.490;2023-06-26T14:16:57;32.70;99.90
14031;DHT22;7090;49.436;8.490;2023-06-26T14:19:24;32.50;99.90
14031;DHT22;7090;49.436;8.490;2023-06-26T14:21:51;32.60;99.90
14031;DHT22;7090;49.436;8.490;2023-06-26T14:24:16;33.20;99.90
14031;DHT22;7090;49.436;8.490;2023-06-26T14:26:42;33.50;99.90
14031;DHT22;7090;49.436;8.490;2023-06-26T14:29:08;33.20;99.90
14031;DHT22;7090;49.436;8.490;2023-06-26T14:31:33;32.00;99.90
14031;DHT22;7090;49.436;8.490;2023-06-26T14:33:59;31.30;99.90
14031;DHT22;7090;49.436;8.490;2023-06-26T14:36:25;31.20;99.90
14031;DHT22;7090;49.436;8.490;2023-06-26T14:38:52;31.40;61.40
14031;DHT22;7090;49.436;8.490;2023-06-26T14:41:17;31.50;68.70
14031;DHT22;7090;49.436;8.490;2023-06-26T14:43:43;31.40;43.10
14031;DHT22;7090;49.436;8.490;2023-06-26T14:46:10;31.20;99.90
14031;DHT22;7090;49.436;8.490;2023-06-26T14:48:36;30.90;99.90
14031;DHT22;7090;49.436;8.490;2023-06-26T14:51:02;30.80;99.90
14031;DHT22;7090;49.436;8.490;2023-06-26T14:53:27;30.60;99.90
14031;DHT22;7090;49.436;8.490;2023-06-26T14:55:53;30.60;99.90
14031;DHT22;7090;49.436;8.490;2023-06-26T14:58:18;30.60;1.00
14031;DHT22;7090;49.436;8.490;2023-06-26T15:00:44;30.70;1.00
14031;DHT22;7090;49.436;8.490;2023-06-26T15:03:10;30.70;1.00
14031;DHT22;7090;49.436;8.490;2023-06-26T15:05:35;30.90;1.00
14031;DHT22;7090;49.436;8.490;2023-06-26T15:08:01;31.40;20.90
14031;DHT22;7090;49.436;8.490;2023-06-26T15:10:26;31.40;1.00
14031;DHT22;7090;49.436;8.490;2023-06-26T15:12:52;31.20;14.30
14031;DHT22;7090;49.436;8.490;2023-06-26T15:15:18;30.90;1.00
14031;DHT22;7090;49.436;8.490;2023-06-26T15:17:44;30.70;1.00
14031;DHT22;7090;49.436;8.490;2023-06-26T15:20:10;30.40;1.00
14031;DHT22;7090;49.436;8.490;2023-06-26T15:22:35;30.20;1.00
14031;DHT22;7090;49.436;8.490;2023-06-26T15:25:01;30.10;1.00
14031;DHT22;7090;49.436;8.490;2023-06-26T15:27:26;30.20;1.00
14031;DHT22;7090;49.436;8.490;2023-06-26T15:29:52;30.20;1.00
14031;DHT22;7090;49.436;8.490;2023-06-26T15:32:17;30.10;1.00
14031;DHT22;7090;49.436;8.490;2023-06-26T15:34:43;30.10;1.00
14031;DHT22;7090;49.436;8.490;2023-06-26T15:37:09;30.40;1.00
14031;DHT22;7090;49.436;8.490;2023-06-26T15:39:34;30.40;1.00
14031;DHT22;7090;49.436;8.490;2023-06-26T15:42:00;30.00;1.00
14031;DHT22;7090;49.436;8.490;2023-06-26T15:44:25;30.60;1.00
14031;DHT22;7090;49.436;8.490;2023-06-26T15:46:51;30.70;1.00
14031;DHT22;7090;49.436;8.490;2023-06-26T15:49:17;30.30;1.00
14031;DHT22;7090;49.436;8.490;2023-06-26T15:51:42;30.40;1.00
14031;DHT22;7090;49.436;8.490;2023-06-26T15:54:10;29.80;1.00
14031;DHT22;7090;49.436;8.490;2023-06-26T15:56:36;29.60;1.00
14031;DHT22;7090;49.436;8.490;2023-06-26T15:59:01;29.50;1.00
14031;DHT22;7090;49.436;8.490;2023-06-26T16:01:27;29.50;1.00
14031;DHT22;7090;49.436;8.490;2023-06-26T16:03:52;29.60;1.00
14031;DHT22;7090;49.436;8.490;2023-06-26T16:06:18;29.60;1.00